QFA579 YBHM-YSSY
Flight info
| Callsign | QFA579 |
|---|---|
| Flight time | N/A |
| Altitude | 37000 |
| Route | OVRON B462 MK H652 BOREE |
| Aircraft | B738/M-SDE2E3FGHIRWXY/LB1 |
Departure
| Time | 2026-05-07 04:42 |
|---|---|
| Airport | Hamilton Island Airport (YBHM) |
Arrival
| Time | N/A |
|---|---|
| Airport | Sydney Kingsford Smith International Airport (YSSY) |
| Time | Latitude | Longitude | Altitude | Speed | Heading |
|---|---|---|---|---|---|
| 2026-05-07 03:48 | -20.35285 | 148.95022 | 19 ft | 0 kts | 1° |
| 2026-05-07 04:35 | -20.35283 | 148.95022 | 19 ft | 1 kts | 360° |
| 2026-05-07 04:35 | -20.35279 | 148.95018 | 19 ft | 1 kts | 310° |
| 2026-05-07 04:35 | -20.35281 | 148.95010 | 19 ft | 1 kts | 250° |
| 2026-05-07 04:36 | -20.35295 | 148.95001 | 21 ft | 3 kts | 205° |
| 2026-05-07 04:36 | -20.35329 | 148.95000 | 19 ft | 6 kts | 175° |
| 2026-05-07 04:36 | -20.35372 | 148.94986 | 21 ft | 7 kts | 221° |
| 2026-05-07 04:36 | -20.35384 | 148.94970 | 19 ft | 0 kts | 232° |
| 2026-05-07 04:38 | -20.35385 | 148.94969 | 19 ft | 1 kts | 232° |
| 2026-05-07 04:38 | -20.35392 | 148.94959 | 20 ft | 3 kts | 231° |
| 2026-05-07 04:38 | -20.35410 | 148.94933 | 20 ft | 7 kts | 244° |
| 2026-05-07 04:39 | -20.35387 | 148.94875 | 21 ft | 13 kts | 320° |
| 2026-05-07 04:39 | -20.35301 | 148.94808 | 20 ft | 17 kts | 324° |
| 2026-05-07 04:39 | -20.35207 | 148.94732 | 18 ft | 17 kts | 323° |
| 2026-05-07 04:39 | -20.35143 | 148.94694 | 18 ft | 9 kts | 354° |
| 2026-05-07 04:40 | -20.35084 | 148.94681 | 18 ft | 9 kts | 303° |
| 2026-05-07 04:40 | -20.35119 | 148.94658 | 18 ft | 9 kts | 142° |
| 2026-05-07 04:40 | -20.35155 | 148.94690 | 18 ft | 0 kts | 143° |
| 2026-05-07 04:41 | -20.35164 | 148.94697 | 18 ft | 0 kts | 143° |
| 2026-05-07 04:41 | -20.35164 | 148.94698 | 18 ft | 0 kts | 143° |
| 2026-05-07 04:41 | -20.35180 | 148.94711 | 20 ft | 9 kts | 143° |
| 2026-05-07 04:41 | -20.35364 | 148.94859 | 23 ft | 74 kts | 143° |
| 2026-05-07 04:42 | -20.36009 | 148.95382 | 37 ft | 154 kts | 142° |
| 2026-05-07 04:42 | -20.36949 | 148.96077 | 872 ft | 166 kts | 150° |
| 2026-05-07 04:42 | -20.37884 | 148.96746 | 2172 ft | 154 kts | 149° |
| 2026-05-07 04:42 | -20.38723 | 148.97454 | 3028 ft | 167 kts | 125° |
| 2026-05-07 04:43 | -20.39450 | 148.98581 | 3348 ft | 201 kts | 141° |
| 2026-05-07 04:43 | -20.40834 | 148.99072 | 3643 ft | 225 kts | 179° |
| 2026-05-07 04:43 | -20.42477 | 148.99046 | 3913 ft | 251 kts | 179° |
| 2026-05-07 04:43 | -20.44256 | 148.99111 | 4760 ft | 259 kts | 175° |
| 2026-05-07 04:44 | -20.46054 | 148.99280 | 5761 ft | 263 kts | 173° |
| 2026-05-07 04:44 | -20.47886 | 148.99543 | 6634 ft | 269 kts | 171° |
| 2026-05-07 04:44 | -20.49769 | 148.99888 | 7428 ft | 277 kts | 169° |
| 2026-05-07 04:44 | -20.51682 | 149.00295 | 8244 ft | 285 kts | 168° |
| 2026-05-07 04:45 | -20.53651 | 149.00756 | 9038 ft | 294 kts | 168° |
| 2026-05-07 04:45 | -20.55666 | 149.01262 | 9849 ft | 302 kts | 168° |
| 2026-05-07 04:45 | -20.57707 | 149.01796 | 10502 ft | 314 kts | 168° |
| 2026-05-07 04:45 | -20.59911 | 149.02386 | 10704 ft | 341 kts | 167° |
| 2026-05-07 04:46 | -20.62298 | 149.03040 | 10889 ft | 366 kts | 167° |
| 2026-05-07 04:46 | -20.64838 | 149.03746 | 11073 ft | 387 kts | 167° |
| 2026-05-07 04:46 | -20.67484 | 149.04492 | 11510 ft | 398 kts | 167° |
| 2026-05-07 04:46 | -20.70176 | 149.05255 | 12132 ft | 402 kts | 167° |
| 2026-05-07 04:47 | -20.72900 | 149.06030 | 12705 ft | 409 kts | 168° |
| 2026-05-07 04:47 | -20.75665 | 149.06817 | 13266 ft | 414 kts | 168° |
| 2026-05-07 04:47 | -20.78475 | 149.07617 | 13792 ft | 421 kts | 168° |
| 2026-05-07 04:47 | -20.81283 | 149.08416 | 14290 ft | 425 kts | 168° |
| 2026-05-07 04:48 | -20.84150 | 149.09234 | 14832 ft | 428 kts | 168° |
| 2026-05-07 04:48 | -20.87045 | 149.10059 | 15340 ft | 433 kts | 169° |
| 2026-05-07 04:48 | -20.89968 | 149.10892 | 15852 ft | 437 kts | 169° |
| 2026-05-07 04:48 | -20.92916 | 149.11732 | 16332 ft | 441 kts | 169° |
| 2026-05-07 04:49 | -20.95900 | 149.12583 | 16811 ft | 445 kts | 169° |
| 2026-05-07 04:49 | -20.98899 | 149.13438 | 17313 ft | 449 kts | 169° |
| 2026-05-07 04:49 | -21.01937 | 149.14305 | 17757 ft | 454 kts | 169° |
| 2026-05-07 04:49 | -21.05003 | 149.15181 | 18242 ft | 458 kts | 169° |
| 2026-05-07 04:50 | -21.08050 | 149.16053 | 18664 ft | 461 kts | 169° |
| 2026-05-07 04:50 | -21.11151 | 149.16940 | 19114 ft | 463 kts | 169° |
| 2026-05-07 04:50 | -21.14269 | 149.17831 | 19544 ft | 465 kts | 169° |
| 2026-05-07 04:50 | -21.17408 | 149.18714 | 19956 ft | 467 kts | 171° |
| 2026-05-07 04:51 | -21.20596 | 149.19356 | 20369 ft | 466 kts | 176° |
| 2026-05-07 04:51 | -21.23814 | 149.19840 | 20771 ft | 468 kts | 178° |
| 2026-05-07 04:51 | -21.27052 | 149.20274 | 21172 ft | 470 kts | 178° |
| 2026-05-07 04:51 | -21.30309 | 149.20701 | 21567 ft | 473 kts | 178° |
| 2026-05-07 04:52 | -21.33541 | 149.21137 | 21942 ft | 476 kts | 178° |
| 2026-05-07 04:52 | -21.36834 | 149.21597 | 22324 ft | 478 kts | 178° |
| 2026-05-07 04:52 | -21.40141 | 149.22073 | 22686 ft | 481 kts | 178° |
| 2026-05-07 04:52 | -21.43465 | 149.22562 | 23044 ft | 483 kts | 178° |
| 2026-05-07 04:53 | -21.46798 | 149.23056 | 23390 ft | 486 kts | 178° |
| 2026-05-07 04:53 | -21.50155 | 149.23557 | 23690 ft | 488 kts | 178° |
| 2026-05-07 04:53 | -21.53533 | 149.24061 | 24001 ft | 490 kts | 178° |
| 2026-05-07 04:53 | -21.56903 | 149.24564 | 24307 ft | 490 kts | 178° |
| 2026-05-07 04:54 | -21.60287 | 149.25069 | 24611 ft | 492 kts | 178° |
| 2026-05-07 04:54 | -21.63636 | 149.25568 | 24904 ft | 493 kts | 178° |
| 2026-05-07 04:54 | -21.67039 | 149.26074 | 25186 ft | 495 kts | 178° |
| 2026-05-07 04:54 | -21.70454 | 149.26582 | 25465 ft | 496 kts | 178° |
| 2026-05-07 04:55 | -21.73878 | 149.27092 | 25748 ft | 497 kts | 178° |
| 2026-05-07 04:55 | -21.77311 | 149.27604 | 26036 ft | 499 kts | 179° |
| 2026-05-07 04:55 | -21.80749 | 149.28117 | 26312 ft | 500 kts | 178° |
| 2026-05-07 04:55 | -21.84201 | 149.28632 | 26559 ft | 502 kts | 178° |
| 2026-05-07 04:56 | -21.87664 | 149.29148 | 26847 ft | 503 kts | 179° |
| 2026-05-07 04:56 | -21.91086 | 149.29662 | 27140 ft | 504 kts | 179° |
| 2026-05-07 04:56 | -21.94558 | 149.30187 | 27423 ft | 504 kts | 179° |
| 2026-05-07 04:56 | -21.98041 | 149.30706 | 27661 ft | 506 kts | 179° |
| 2026-05-07 04:57 | -22.01528 | 149.31224 | 27889 ft | 508 kts | 179° |
| 2026-05-07 04:57 | -22.05028 | 149.31745 | 28186 ft | 507 kts | 179° |
| 2026-05-07 04:57 | -22.08520 | 149.32268 | 28541 ft | 506 kts | 179° |
| 2026-05-07 04:57 | -22.11998 | 149.32790 | 28953 ft | 503 kts | 179° |
| 2026-05-07 04:58 | -22.15459 | 149.33310 | 29391 ft | 501 kts | 179° |
| 2026-05-07 04:58 | -22.18913 | 149.33829 | 29775 ft | 501 kts | 179° |
| 2026-05-07 04:58 | -22.22320 | 149.34339 | 30150 ft | 500 kts | 180° |
| 2026-05-07 04:58 | -22.25764 | 149.34855 | 30469 ft | 499 kts | 180° |
| 2026-05-07 04:59 | -22.29208 | 149.35371 | 30719 ft | 501 kts | 180° |
| 2026-05-07 04:59 | -22.32658 | 149.35889 | 31014 ft | 501 kts | 180° |
| 2026-05-07 04:59 | -22.36116 | 149.36408 | 31247 ft | 502 kts | 180° |
| 2026-05-07 04:59 | -22.39584 | 149.36929 | 31477 ft | 504 kts | 180° |
| 2026-05-07 05:00 | -22.43060 | 149.37440 | 31739 ft | 503 kts | 182° |
| 2026-05-07 05:00 | -22.46525 | 149.37762 | 32109 ft | 498 kts | 185° |
| 2026-05-07 05:00 | -22.49983 | 149.37949 | 32345 ft | 498 kts | 187° |
| 2026-05-07 05:00 | -22.53400 | 149.38073 | 32586 ft | 498 kts | 188° |
| 2026-05-07 05:01 | -22.56871 | 149.38187 | 32880 ft | 498 kts | 188° |
| 2026-05-07 05:01 | -22.60334 | 149.38310 | 33186 ft | 499 kts | 188° |
| 2026-05-07 05:01 | -22.63805 | 149.38449 | 33489 ft | 499 kts | 188° |
| 2026-05-07 05:01 | -22.67279 | 149.38603 | 33780 ft | 500 kts | 188° |
| 2026-05-07 05:02 | -22.70758 | 149.38768 | 34071 ft | 500 kts | 188° |
| 2026-05-07 05:02 | -22.74235 | 149.38940 | 34374 ft | 500 kts | 188° |
| 2026-05-07 05:02 | -22.77704 | 149.39116 | 34681 ft | 499 kts | 188° |
| 2026-05-07 05:02 | -22.81159 | 149.39290 | 34964 ft | 498 kts | 188° |
| 2026-05-07 05:03 | -22.84576 | 149.39462 | 35224 ft | 498 kts | 188° |
| 2026-05-07 05:03 | -22.88048 | 149.39634 | 35480 ft | 498 kts | 188° |
| 2026-05-07 05:03 | -22.91509 | 149.39806 | 35731 ft | 498 kts | 188° |
| 2026-05-07 05:03 | -22.94964 | 149.39977 | 35989 ft | 498 kts | 188° |
| 2026-05-07 05:04 | -22.98428 | 149.40148 | 36247 ft | 497 kts | 188° |
| 2026-05-07 05:04 | -23.01882 | 149.40319 | 36533 ft | 497 kts | 188° |
| 2026-05-07 05:04 | -23.05338 | 149.40489 | 36785 ft | 497 kts | 189° |
| 2026-05-07 05:04 | -23.08791 | 149.40660 | 37025 ft | 497 kts | 189° |
| 2026-05-07 05:05 | -23.15689 | 149.40999 | 37027 ft | 499 kts | 188° |
| 2026-05-07 05:05 | -23.22585 | 149.41351 | 37030 ft | 495 kts | 189° |
| 2026-05-07 05:06 | -23.29464 | 149.41692 | 37052 ft | 494 kts | 189° |
| 2026-05-07 05:06 | -23.36330 | 149.42029 | 37034 ft | 494 kts | 189° |
| 2026-05-07 05:07 | -23.43145 | 149.42368 | 37036 ft | 493 kts | 189° |
| 2026-05-07 05:07 | -23.49996 | 149.42709 | 37033 ft | 493 kts | 189° |
| 2026-05-07 05:08 | -23.56861 | 149.43051 | 37037 ft | 494 kts | 189° |
| 2026-05-07 05:08 | -23.63729 | 149.43393 | 37046 ft | 495 kts | 189° |
| 2026-05-07 05:09 | -23.70574 | 149.43735 | 37049 ft | 495 kts | 189° |
| 2026-05-07 05:09 | -23.77462 | 149.44081 | 37052 ft | 496 kts | 189° |
| 2026-05-07 05:10 | -23.84358 | 149.44426 | 37047 ft | 496 kts | 189° |
| 2026-05-07 05:10 | -23.91255 | 149.44772 | 37066 ft | 496 kts | 190° |
| 2026-05-07 05:11 | -23.98148 | 149.45119 | 37059 ft | 496 kts | 190° |
| 2026-05-07 05:11 | -24.05002 | 149.45464 | 37059 ft | 496 kts | 190° |
| 2026-05-07 05:12 | -24.11894 | 149.45811 | 37057 ft | 496 kts | 190° |
| 2026-05-07 05:12 | -24.18794 | 149.46158 | 37069 ft | 496 kts | 190° |
| 2026-05-07 05:13 | -24.25678 | 149.46506 | 37067 ft | 496 kts | 190° |
| 2026-05-07 05:13 | -24.32568 | 149.46854 | 37063 ft | 495 kts | 190° |
| 2026-05-07 05:14 | -24.39408 | 149.47200 | 37064 ft | 495 kts | 190° |
| 2026-05-07 05:14 | -24.46292 | 149.47548 | 37072 ft | 495 kts | 190° |
| 2026-05-07 05:15 | -24.53177 | 149.47897 | 37068 ft | 495 kts | 190° |
| 2026-05-07 05:15 | -24.60049 | 149.48245 | 37074 ft | 495 kts | 190° |
| 2026-05-07 05:16 | -24.66885 | 149.48592 | 37071 ft | 495 kts | 190° |
| 2026-05-07 05:16 | -24.73782 | 149.48942 | 37080 ft | 496 kts | 190° |
| 2026-05-07 05:17 | -24.80681 | 149.49292 | 37081 ft | 497 kts | 190° |
| 2026-05-07 05:17 | -24.87593 | 149.49645 | 37070 ft | 497 kts | 190° |
| 2026-05-07 05:18 | -24.94501 | 149.49998 | 37093 ft | 497 kts | 190° |
| 2026-05-07 05:18 | -25.01374 | 149.50348 | 37092 ft | 499 kts | 190° |
| 2026-05-07 05:19 | -25.08306 | 149.50703 | 37085 ft | 499 kts | 190° |
| 2026-05-07 05:19 | -25.15237 | 149.51059 | 37088 ft | 498 kts | 190° |
| 2026-05-07 05:20 | -25.22156 | 149.51413 | 37088 ft | 498 kts | 190° |
| 2026-05-07 05:20 | -25.29039 | 149.51764 | 37098 ft | 498 kts | 190° |
| 2026-05-07 05:21 | -25.39426 | 149.52296 | 37093 ft | 498 kts | 190° |
| 2026-05-07 05:22 | -25.46348 | 149.52651 | 37092 ft | 498 kts | 190° |
| 2026-05-07 05:22 | -25.53221 | 149.53004 | 37117 ft | 498 kts | 190° |
| 2026-05-07 05:23 | -25.60151 | 149.53360 | 37099 ft | 498 kts | 190° |
| 2026-05-07 05:23 | -25.67067 | 149.53717 | 37102 ft | 497 kts | 190° |
| 2026-05-07 05:24 | -25.73983 | 149.54073 | 37098 ft | 497 kts | 190° |
| 2026-05-07 05:24 | -25.80851 | 149.54427 | 37109 ft | 498 kts | 190° |
| 2026-05-07 05:25 | -25.87768 | 149.54784 | 37110 ft | 497 kts | 190° |
| 2026-05-07 05:25 | -25.94675 | 149.55141 | 37102 ft | 497 kts | 190° |
| 2026-05-07 05:26 | -26.01588 | 149.55499 | 37110 ft | 497 kts | 190° |
| 2026-05-07 05:26 | -26.08453 | 149.55855 | 37111 ft | 497 kts | 190° |
| 2026-05-07 05:27 | -26.15362 | 149.56213 | 37115 ft | 497 kts | 190° |
| 2026-05-07 05:27 | -26.22272 | 149.56573 | 37111 ft | 496 kts | 190° |
| 2026-05-07 05:28 | -26.29168 | 149.56931 | 37117 ft | 496 kts | 190° |
| 2026-05-07 05:28 | -26.34906 | 149.57229 | 37122 ft | 497 kts | 190° |
| 2026-05-07 05:29 | -26.42928 | 149.57647 | 37112 ft | 496 kts | 190° |
| 2026-05-07 05:29 | -26.49826 | 149.58008 | 37119 ft | 496 kts | 190° |
| 2026-05-07 05:30 | -26.55552 | 149.58307 | 37116 ft | 496 kts | 190° |
| 2026-05-07 05:30 | -26.62450 | 149.58667 | 37115 ft | 497 kts | 190° |
| 2026-05-07 05:31 | -26.70477 | 149.59088 | 37114 ft | 496 kts | 190° |
| 2026-05-07 05:31 | -26.76210 | 149.59388 | 37122 ft | 496 kts | 190° |
| 2026-05-07 05:32 | -26.83103 | 149.59747 | 37119 ft | 496 kts | 190° |
| 2026-05-07 05:32 | -26.89999 | 149.60107 | 37131 ft | 496 kts | 190° |
| 2026-05-07 05:33 | -26.96896 | 149.60468 | 37128 ft | 496 kts | 190° |
| 2026-05-07 05:33 | -27.03796 | 149.60829 | 37122 ft | 496 kts | 190° |
| 2026-05-07 05:34 | -27.10647 | 149.61189 | 37124 ft | 496 kts | 190° |
| 2026-05-07 05:34 | -27.17540 | 149.61550 | 37128 ft | 496 kts | 190° |
| 2026-05-07 05:35 | -27.24441 | 149.61913 | 37128 ft | 496 kts | 190° |
| 2026-05-07 05:35 | -27.31341 | 149.62277 | 37130 ft | 496 kts | 190° |
| 2026-05-07 05:36 | -27.38196 | 149.62638 | 37152 ft | 497 kts | 190° |
| 2026-05-07 05:36 | -27.45104 | 149.63002 | 37127 ft | 497 kts | 190° |
| 2026-05-07 05:37 | -27.52002 | 149.63367 | 37124 ft | 497 kts | 190° |
| 2026-05-07 05:37 | -27.58913 | 149.63733 | 37129 ft | 496 kts | 190° |
| 2026-05-07 05:38 | -27.65758 | 149.64096 | 37153 ft | 496 kts | 190° |
| 2026-05-07 05:38 | -27.72659 | 149.64461 | 37138 ft | 496 kts | 190° |
| 2026-05-07 05:39 | -27.79553 | 149.64828 | 37133 ft | 496 kts | 190° |
| 2026-05-07 05:39 | -27.86439 | 149.65194 | 37133 ft | 495 kts | 190° |
| 2026-05-07 05:40 | -27.93316 | 149.65560 | 37150 ft | 496 kts | 190° |
| 2026-05-07 05:40 | -28.00157 | 149.65924 | 37075 ft | 496 kts | 190° |
| 2026-05-07 05:41 | -28.07007 | 149.66294 | 37132 ft | 491 kts | 190° |
| 2026-05-07 05:41 | -28.13820 | 149.66656 | 37137 ft | 489 kts | 190° |
| 2026-05-07 05:42 | -28.20648 | 149.67390 | 37130 ft | 506 kts | 179° |
| 2026-05-07 05:42 | -28.27464 | 149.69361 | 37140 ft | 510 kts | 176° |
| 2026-05-07 05:43 | -28.34305 | 149.71462 | 37141 ft | 508 kts | 176° |
| 2026-05-07 05:43 | -28.41140 | 149.73492 | 37140 ft | 507 kts | 177° |
| 2026-05-07 05:44 | -28.47978 | 149.75475 | 37145 ft | 508 kts | 177° |
| 2026-05-07 05:44 | -28.54771 | 149.77443 | 37147 ft | 508 kts | 177° |
| 2026-05-07 05:45 | -28.61622 | 149.79435 | 37136 ft | 508 kts | 177° |
| 2026-05-07 05:45 | -28.68479 | 149.81435 | 37140 ft | 509 kts | 177° |
| 2026-05-07 05:46 | -28.75344 | 149.83440 | 37137 ft | 510 kts | 177° |
| 2026-05-07 05:46 | -28.82173 | 149.85437 | 37144 ft | 510 kts | 177° |
| 2026-05-07 05:47 | -28.89050 | 149.87461 | 37137 ft | 510 kts | 176° |
| 2026-05-07 05:47 | -28.95927 | 149.89494 | 37147 ft | 511 kts | 177° |
| 2026-05-07 05:48 | -29.02804 | 149.91529 | 37140 ft | 512 kts | 176° |
| 2026-05-07 05:48 | -29.09691 | 149.93569 | 37145 ft | 511 kts | 176° |
| 2026-05-07 05:49 | -29.16526 | 149.95596 | 37134 ft | 511 kts | 176° |
| 2026-05-07 05:49 | -29.23401 | 149.97638 | 37138 ft | 510 kts | 176° |
| 2026-05-07 05:50 | -29.30272 | 149.99681 | 37140 ft | 510 kts | 176° |
| 2026-05-07 05:50 | -29.37137 | 150.01727 | 37137 ft | 509 kts | 176° |
| 2026-05-07 05:51 | -29.43946 | 150.03752 | 37138 ft | 508 kts | 176° |
| 2026-05-07 05:51 | -29.50787 | 150.05772 | 37142 ft | 507 kts | 176° |
| 2026-05-07 05:52 | -29.57621 | 150.07792 | 37138 ft | 507 kts | 176° |
| 2026-05-07 05:52 | -29.64445 | 150.09816 | 37142 ft | 506 kts | 176° |
| 2026-05-07 05:53 | -29.71250 | 150.11844 | 37142 ft | 505 kts | 176° |
| 2026-05-07 05:53 | -29.78009 | 150.13871 | 37141 ft | 505 kts | 176° |
| 2026-05-07 05:54 | -29.84797 | 150.15909 | 37140 ft | 504 kts | 176° |
| 2026-05-07 05:54 | -29.91583 | 150.17949 | 37149 ft | 504 kts | 176° |
| 2026-05-07 05:55 | -29.98372 | 150.19990 | 37139 ft | 505 kts | 176° |
| 2026-05-07 05:55 | -30.05125 | 150.22023 | 37162 ft | 505 kts | 176° |
| 2026-05-07 05:56 | -30.11941 | 150.24078 | 37159 ft | 507 kts | 176° |
| 2026-05-07 05:56 | -30.18769 | 150.26142 | 37155 ft | 507 kts | 176° |
| 2026-05-07 05:57 | -30.25591 | 150.28202 | 37138 ft | 507 kts | 177° |
| 2026-05-07 05:57 | -30.32357 | 150.30242 | 37187 ft | 505 kts | 176° |
| 2026-05-07 05:58 | -30.39159 | 150.32315 | 37140 ft | 506 kts | 176° |
| 2026-05-07 05:58 | -30.45967 | 150.34395 | 37135 ft | 506 kts | 176° |
| 2026-05-07 05:59 | -30.52784 | 150.36469 | 37147 ft | 506 kts | 176° |
| 2026-05-07 05:59 | -30.59601 | 150.38547 | 37190 ft | 507 kts | 176° |
| 2026-05-07 06:00 | -30.66394 | 150.40615 | 37153 ft | 508 kts | 176° |
| 2026-05-07 06:00 | -30.73219 | 150.42703 | 37152 ft | 507 kts | 176° |
| 2026-05-07 06:01 | -30.80046 | 150.44796 | 37142 ft | 507 kts | 176° |
| 2026-05-07 06:01 | -30.86862 | 150.46880 | 37212 ft | 507 kts | 177° |
| 2026-05-07 06:02 | -30.93622 | 150.48958 | 37149 ft | 508 kts | 177° |
| 2026-05-07 06:02 | -31.00462 | 150.51058 | 37148 ft | 509 kts | 177° |
| 2026-05-07 06:03 | -31.07323 | 150.53166 | 37132 ft | 510 kts | 177° |
| 2026-05-07 06:03 | -31.14183 | 150.55275 | 37203 ft | 510 kts | 177° |
| 2026-05-07 06:04 | -31.21069 | 150.57404 | 37152 ft | 513 kts | 177° |
| 2026-05-07 06:04 | -31.27916 | 150.59522 | 37145 ft | 513 kts | 177° |
| 2026-05-07 06:05 | -31.34822 | 150.61666 | 37132 ft | 513 kts | 177° |
| 2026-05-07 06:05 | -31.41722 | 150.63802 | 37169 ft | 513 kts | 177° |
| 2026-05-07 06:06 | -31.48577 | 150.65928 | 37148 ft | 512 kts | 177° |
| 2026-05-07 06:06 | -31.55455 | 150.68046 | 37144 ft | 510 kts | 177° |
| 2026-05-07 06:07 | -31.62309 | 150.70194 | 37139 ft | 509 kts | 177° |
| 2026-05-07 06:07 | -31.69148 | 150.72334 | 37135 ft | 508 kts | 177° |
| 2026-05-07 06:08 | -31.75970 | 150.74453 | 37133 ft | 506 kts | 177° |
| 2026-05-07 06:08 | -31.82708 | 150.76579 | 37134 ft | 505 kts | 177° |
| 2026-05-07 06:09 | -31.89470 | 150.78654 | 37139 ft | 501 kts | 177° |
| 2026-05-07 06:09 | -31.96212 | 150.80794 | 37130 ft | 501 kts | 176° |
| 2026-05-07 06:10 | -32.02958 | 150.82928 | 36676 ft | 505 kts | 178° |
| 2026-05-07 06:10 | -32.06358 | 150.83779 | 36082 ft | 496 kts | 183° |
| 2026-05-07 06:10 | -32.09717 | 150.84394 | 35454 ft | 493 kts | 185° |
| 2026-05-07 06:10 | -32.13721 | 150.85019 | 34680 ft | 494 kts | 185° |
| 2026-05-07 06:11 | -32.15426 | 150.85278 | 34343 ft | 495 kts | 185° |
| 2026-05-07 06:11 | -32.19960 | 150.85986 | 33366 ft | 498 kts | 185° |
| 2026-05-07 06:11 | -32.23392 | 150.86555 | 32644 ft | 498 kts | 184° |
| 2026-05-07 06:11 | -32.26812 | 150.87145 | 31966 ft | 495 kts | 183° |
| 2026-05-07 06:12 | -32.30211 | 150.87743 | 31197 ft | 494 kts | 183° |
| 2026-05-07 06:12 | -32.33611 | 150.88342 | 30522 ft | 492 kts | 182° |